sensor_id;sensor_type;location;lat;lon;timestamp;temperature;humidity
22923;DHT22;11627;51.322;22.816;2024-03-23T00:54:28;8.90;99.90
22923;DHT22;11627;51.322;22.816;2024-03-23T00:56:55;8.90;99.90
22923;DHT22;11627;51.322;22.816;2024-03-23T00:59:22;8.90;99.90
22923;DHT22;11627;51.322;22.816;2024-03-23T01:01:52;8.90;99.90
22923;DHT22;11627;51.322;22.816;2024-03-23T01:04:20;8.90;99.90
22923;DHT22;11627;51.322;22.816;2024-03-23T01:06:47;8.90;99.90
22923;DHT22;11627;51.322;22.816;2024-03-23T01:09:15;9.00;99.90
22923;DHT22;11627;51.322;22.816;2024-03-23T01:11:44;9.00;99.90
22923;DHT22;11627;51.322;22.816;2024-03-23T01:14:10;9.00;99.90
22923;DHT22;11627;51.322;22.816;2024-03-23T01:16:36;8.90;99.90
22923;DHT22;11627;51.322;22.816;2024-03-23T01:19:04;9.00;99.90
22923;DHT22;11627;51.322;22.816;2024-03-23T01:21:33;9.00;99.90
22923;DHT22;11627;51.322;22.816;2024-03-23T01:23:58;9.00;99.90
22923;DHT22;11627;51.322;22.816;2024-03-23T01:26:27;9.00;99.90
22923;DHT22;11627;51.322;22.816;2024-03-23T01:28:54;9.00;99.90
22923;DHT22;11627;51.322;22.816;2024-03-23T01:31:21;9.00;99.90
22923;DHT22;11627;51.322;22.816;2024-03-23T01:33:49;9.00;99.90
22923;DHT22;11627;51.322;22.816;2024-03-23T01:36:16;9.00;99.90
22923;DHT22;11627;51.322;22.816;2024-03-23T01:38:43;9.00;99.90
22923;DHT22;11627;51.322;22.816;2024-03-23T01:41:10;9.00;99.90
22923;DHT22;11627;51.322;22.816;2024-03-23T01:43:36;9.00;99.90
22923;DHT22;11627;51.322;22.816;2024-03-23T01:46:03;8.90;99.90
22923;DHT22;11627;51.322;22.816;2024-03-23T01:48:31;8.90;99.90
22923;DHT22;11627;51.322;22.816;2024-03-23T01:50:59;8.90;99.90
22923;DHT22;11627;51.322;22.816;2024-03-23T01:53:26;9.00;99.90
22923;DHT22;11627;51.322;22.816;2024-03-23T01:55:53;9.00;99.90
22923;DHT22;11627;51.322;22.816;2024-03-23T01:58:22;10.40;99.90
22923;DHT22;11627;51.322;22.816;2024-03-23T02:00:48;9.00;99.90
22923;DHT22;11627;51.322;22.816;2024-03-23T02:03:34;8.90;99.90
22923;DHT22;11627;51.322;22.816;2024-03-23T02:06:03;9.00;99.90
22923;DHT22;11627;51.322;22.816;2024-03-23T02:08:33;8.90;99.90
22923;DHT22;11627;51.322;22.816;2024-03-23T02:11:00;8.90;99.90
22923;DHT22;11627;51.322;22.816;2024-03-23T02:13:27;8.90;99.90
22923;DHT22;11627;51.322;22.816;2024-03-23T02:15:56;8.80;99.90
22923;DHT22;11627;51.322;22.816;2024-03-23T02:18:22;8.80;99.90
22923;DHT22;11627;51.322;22.816;2024-03-23T02:20:47;8.80;99.90
22923;DHT22;11627;51.322;22.816;2024-03-23T02:23:16;8.80;99.90
22923;DHT22;11627;51.322;22.816;2024-03-23T02:25:48;8.70;99.90
22923;DHT22;11627;51.322;22.816;2024-03-23T02:28:15;8.70;99.90
22923;DHT22;11627;51.322;22.816;2024-03-23T02:30:43;8.70;99.90
22923;DHT22;11627;51.322;22.816;2024-03-23T02:33:10;8.70;99.90
22923;DHT22;11627;51.322;22.816;2024-03-23T02:35:36;8.70;99.90
22923;DHT22;11627;51.322;22.816;2024-03-23T02:38:03;8.70;99.90
22923;DHT22;11627;51.322;22.816;2024-03-23T02:40:30;8.60;99.90
22923;DHT22;11627;51.322;22.816;2024-03-23T02:42:57;8.60;99.90
22923;DHT22;11627;51.322;22.816;2024-03-23T02:45:23;8.70;99.90
22923;DHT22;11627;51.322;22.816;2024-03-23T02:47:49;8.70;99.90
22923;DHT22;11627;51.322;22.816;2024-03-23T02:50:21;8.70;99.90
22923;DHT22;11627;51.322;22.816;2024-03-23T02:52:48;8.60;99.90
22923;DHT22;11627;51.322;22.816;2024-03-23T02:55:15;8.60;99.90
22923;DHT22;11627;51.322;22.816;2024-03-23T02:57:42;8.60;99.90
22923;DHT22;11627;51.322;22.816;2024-03-23T03:00:11;8.60;99.90
22923;DHT22;11627;51.322;22.816;2024-03-23T03:02:39;8.60;99.90
22923;DHT22;11627;51.322;22.816;2024-03-23T03:05:06;8.60;99.90
22923;DHT22;11627;51.322;22.816;2024-03-23T03:07:35;8.50;99.90
22923;DHT22;11627;51.322;22.816;2024-03-23T03:10:04;8.50;99.90
22923;DHT22;11627;51.322;22.816;2024-03-23T03:12:33;8.50;99.90
22923;DHT22;11627;51.322;22.816;2024-03-23T03:15:00;8.50;99.90
22923;DHT22;11627;51.322;22.816;2024-03-23T03:17:28;8.50;99.90
22923;DHT22;11627;51.322;22.816;2024-03-23T03:19:54;8.50;99.90
22923;DHT22;11627;51.322;22.816;2024-03-23T03:22:22;8.50;99.90
22923;DHT22;11627;51.322;22.816;2024-03-23T03:24:50;8.40;99.90
22923;DHT22;11627;51.322;22.816;2024-03-23T03:27:18;8.40;99.90
22923;DHT22;11627;51.322;22.816;2024-03-23T03:29:46;8.40;99.90
22923;DHT22;11627;51.322;22.816;2024-03-23T03:32:12;8.40;99.90
22923;DHT22;11627;51.322;22.816;2024-03-23T03:34:39;8.40;99.90
22923;DHT22;11627;51.322;22.816;2024-03-23T03:37:06;8.40;99.90
22923;DHT22;11627;51.322;22.816;2024-03-23T03:39:32;8.50;99.90
22923;DHT22;11627;51.322;22.816;2024-03-23T03:41:59;8.40;99.90
22923;DHT22;11627;51.322;22.816;2024-03-23T03:44:28;8.40;99.90
22923;DHT22;11627;51.322;22.816;2024-03-23T03:46:55;8.40;99.90
22923;DHT22;11627;51.322;22.816;2024-03-23T03:49:23;8.40;99.90
22923;DHT22;11627;51.322;22.816;2024-03-23T03:51:49;8.40;99.90
22923;DHT22;11627;51.322;22.816;2024-03-23T03:54:17;8.30;99.90
22923;DHT22;11627;51.322;22.816;2024-03-23T03:56:45;8.30;99.90
22923;DHT22;11627;51.322;22.816;2024-03-23T03:59:11;8.30;99.90
22923;DHT22;11627;51.322;22.816;2024-03-23T04:01:37;8.30;99.90
22923;DHT22;11627;51.322;22.816;2024-03-23T04:04:04;8.20;99.90
22923;DHT22;11627;51.322;22.816;2024-03-23T04:06:30;8.30;99.90
22923;DHT22;11627;51.322;22.816;2024-03-23T04:08:56;8.20;99.90
22923;DHT22;11627;51.322;22.816;2024-03-23T04:11:25;8.20;99.90
22923;DHT22;11627;51.322;22.816;2024-03-23T04:13:53;8.20;99.90
22923;DHT22;11627;51.322;22.816;2024-03-23T04:16:35;8.30;99.90
22923;DHT22;11627;51.322;22.816;2024-03-23T04:19:02;8.20;99.90
22923;DHT22;11627;51.322;22.816;2024-03-23T04:21:29;8.20;99.90
22923;DHT22;11627;51.322;22.816;2024-03-23T04:23:58;8.20;99.90
22923;DHT22;11627;51.322;22.816;2024-03-23T04:26:25;8.20;99.90
22923;DHT22;11627;51.322;22.816;2024-03-23T04:28:50;8.20;99.90
22923;DHT22;11627;51.322;22.816;2024-03-23T04:31:17;8.20;99.90
22923;DHT22;11627;51.322;22.816;2024-03-23T04:33:44;8.20;99.90
22923;DHT22;11627;51.322;22.816;2024-03-23T04:36:10;8.20;99.90
22923;DHT22;11627;51.322;22.816;2024-03-23T04:38:37;8.20;99.90
22923;DHT22;11627;51.322;22.816;2024-03-23T04:41:04;8.20;99.90
22923;DHT22;11627;51.322;22.816;2024-03-23T04:43:30;8.20;99.90
22923;DHT22;11627;51.322;22.816;2024-03-23T04:45:57;8.10;99.90
22923;DHT22;11627;51.322;22.816;2024-03-23T04:48:25;8.10;99.90
22923;DHT22;11627;51.322;22.816;2024-03-23T04:50:55;8.10;99.90
22923;DHT22;11627;51.322;22.816;2024-03-23T04:53:24;8.10;99.90
22923;DHT22;11627;51.322;22.816;2024-03-23T04:55:57;8.10;99.90
22923;DHT22;11627;51.322;22.816;2024-03-23T04:58:26;8.20;99.90
22923;DHT22;11627;51.322;22.816;2024-03-23T05:00:55;8.20;99.90
22923;DHT22;11627;51.322;22.816;2024-03-23T05:03:25;8.10;99.90
22923;DHT22;11627;51.322;22.816;2024-03-23T05:05:51;8.20;99.90
22923;DHT22;11627;51.322;22.816;2024-03-23T05:08:18;8.10;99.90
22923;DHT22;11627;51.322;22.816;2024-03-23T05:10:45;8.10;99.90
22923;DHT22;11627;51.322;22.816;2024-03-23T05:13:12;8.10;99.90
22923;DHT22;11627;51.322;22.816;2024-03-23T05:15:38;8.10;99.90
22923;DHT22;11627;51.322;22.816;2024-03-23T05:18:06;8.10;99.90
22923;DHT22;11627;51.322;22.816;2024-03-23T05:20:35;8.10;99.90
22923;DHT22;11627;51.322;22.816;2024-03-23T05:23:03;8.10;99.90
22923;DHT22;11627;51.322;22.816;2024-03-23T05:25:29;8.10;99.90
22923;DHT22;11627;51.322;22.816;2024-03-23T05:27:56;8.10;99.90
22923;DHT22;11627;51.322;22.816;2024-03-23T05:30:24;8.10;99.90
22923;DHT22;11627;51.322;22.816;2024-03-23T05:32:51;8.10;99.90
22923;DHT22;11627;51.322;22.816;2024-03-23T05:35:17;8.10;99.90
22923;DHT22;11627;51.322;22.816;2024-03-23T05:37:44;8.10;99.90
22923;DHT22;11627;51.322;22.816;2024-03-23T05:40:11;8.10;99.90
22923;DHT22;11627;51.322;22.816;2024-03-23T05:42:38;8.20;99.90
22923;DHT22;11627;51.322;22.816;2024-03-23T05:45:04;8.20;99.90
22923;DHT22;11627;51.322;22.816;2024-03-23T05:47:34;8.20;99.90
22923;DHT22;11627;51.322;22.816;2024-03-23T05:50:00;8.20;99.90
22923;DHT22;11627;51.322;22.816;2024-03-23T05:52:27;8.20;99.90
22923;DHT22;11627;51.322;22.816;2024-03-23T05:54:54;8.20;99.90
22923;DHT22;11627;51.322;22.816;2024-03-23T05:57:19;8.30;99.90
22923;DHT22;11627;51.322;22.816;2024-03-23T05:59:47;8.20;99.90
22923;DHT22;11627;51.322;22.816;2024-03-23T06:02:13;8.20;99.90
22923;DHT22;11627;51.322;22.816;2024-03-23T06:04:41;9.10;99.90
22923;DHT22;11627;51.322;22.816;2024-03-23T06:07:07;8.20;99.90
22923;DHT22;11627;51.322;22.816;2024-03-23T06:09:40;8.20;99.90
22923;DHT22;11627;51.322;22.816;2024-03-23T06:12:08;8.30;99.90
22923;DHT22;11627;51.322;22.816;2024-03-23T06:14:35;8.30;99.90
22923;DHT22;11627;51.322;22.816;2024-03-23T06:17:02;8.30;99.90
22923;DHT22;11627;51.322;22.816;2024-03-23T06:19:29;8.30;99.90
22923;DHT22;11627;51.322;22.816;2024-03-23T06:21:55;8.30;99.90
22923;DHT22;11627;51.322;22.816;2024-03-23T06:24:22;8.30;99.90
22923;DHT22;11627;51.322;22.816;2024-03-23T06:26:49;8.30;99.90
22923;DHT22;11627;51.322;22.816;2024-03-23T06:29:16;8.30;99.90
22923;DHT22;11627;51.322;22.816;2024-03-23T06:31:42;8.30;99.90
22923;DHT22;11627;51.322;22.816;2024-03-23T06:34:09;8.30;99.90
22923;DHT22;11627;51.322;22.816;2024-03-23T06:36:35;8.30;99.90
22923;DHT22;11627;51.322;22.816;2024-03-23T06:39:05;8.30;99.90
22923;DHT22;11627;51.322;22.816;2024-03-23T06:41:31;8.30;99.90
22923;DHT22;11627;51.322;22.816;2024-03-23T06:43:57;8.30;99.90
22923;DHT22;11627;51.322;22.816;2024-03-23T06:46:24;8.30;99.90
22923;DHT22;11627;51.322;22.816;2024-03-23T06:48:52;8.30;99.90
22923;DHT22;11627;51.322;22.816;2024-03-23T06:51:19;8.30;99.90
22923;DHT22;11627;51.322;22.816;2024-03-23T06:53:46;8.30;99.90
22923;DHT22;11627;51.322;22.816;2024-03-23T06:56:13;8.30;99.90
22923;DHT22;11627;51.322;22.816;2024-03-23T06:58:40;8.30;99.90
22923;DHT22;11627;51.322;22.816;2024-03-23T07:01:07;8.30;99.90
22923;DHT22;11627;51.322;22.816;2024-03-23T07:03:35;8.30;99.90
22923;DHT22;11627;51.322;22.816;2024-03-23T07:06:02;8.40;99.90
22923;DHT22;11627;51.322;22.816;2024-03-23T07:08:30;8.40;99.90
22923;DHT22;11627;51.322;22.816;2024-03-23T07:10:56;8.40;99.90
22923;DHT22;11627;51.322;22.816;2024-03-23T07:13:24;8.40;99.90
22923;DHT22;11627;51.322;22.816;2024-03-23T07:15:52;8.50;99.90
22923;DHT22;11627;51.322;22.816;2024-03-23T07:18:22;8.50;99.90
22923;DHT22;11627;51.322;22.816;2024-03-23T07:20:58;8.50;99.90
22923;DHT22;11627;51.322;22.816;2024-03-23T07:23:25;8.50;99.90
22923;DHT22;11627;51.322;22.816;2024-03-23T07:26:01;8.50;99.90
22923;DHT22;11627;51.322;22.816;2024-03-23T07:28:31;8.60;99.90
22923;DHT22;11627;51.322;22.816;2024-03-23T07:31:08;8.60;99.90
22923;DHT22;11627;51.322;22.816;2024-03-23T07:33:46;8.70;99.90
22923;DHT22;11627;51.322;22.816;2024-03-23T07:36:13;8.70;99.90
22923;DHT22;11627;51.322;22.816;2024-03-23T07:38:42;8.70;99.90
22923;DHT22;11627;51.322;22.816;2024-03-23T07:41:15;8.70;99.90
22923;DHT22;11627;51.322;22.816;2024-03-23T07:43:48;8.70;99.90
22923;DHT22;11627;51.322;22.816;2024-03-23T07:46:16;8.70;99.90
22923;DHT22;11627;51.322;22.816;2024-03-23T07:48:44;8.70;99.90
22923;DHT22;11627;51.322;22.816;2024-03-23T07:51:18;8.80;99.90
22923;DHT22;11627;51.322;22.816;2024-03-23T07:53:46;8.80;99.90
22923;DHT22;11627;51.322;22.816;2024-03-23T07:56:16;8.80;99.90
22923;DHT22;11627;51.322;22.816;2024-03-23T07:58:44;8.80;99.90
22923;DHT22;11627;51.322;22.816;2024-03-23T08:01:15;8.80;99.90
22923;DHT22;11627;51.322;22.816;2024-03-23T08:03:43;8.70;99.90
22923;DHT22;11627;51.322;22.816;2024-03-23T08:06:17;8.80;99.90
22923;DHT22;11627;51.322;22.816;2024-03-23T08:08:54;8.80;99.90
22923;DHT22;11627;51.322;22.816;2024-03-23T08:11:47;8.80;99.90
22923;DHT22;11627;51.322;22.816;2024-03-23T08:14:15;8.90;99.90
22923;DHT22;11627;51.322;22.816;2024-03-23T08:16:41;8.90;99.90
22923;DHT22;11627;51.322;22.816;2024-03-23T08:19:08;8.90;99.90
22923;DHT22;11627;51.322;22.816;2024-03-23T08:21:35;8.90;99.90
22923;DHT22;11627;51.322;22.816;2024-03-23T08:24:03;8.90;99.90
22923;DHT22;11627;51.322;22.816;2024-03-23T08:26:30;8.90;99.90
22923;DHT22;11627;51.322;22.816;2024-03-23T08:28:57;9.00;99.90
22923;DHT22;11627;51.322;22.816;2024-03-23T08:31:24;9.00;99.90
22923;DHT22;11627;51.322;22.816;2024-03-23T08:33:50;9.00;99.90
22923;DHT22;11627;51.322;22.816;2024-03-23T08:36:16;9.10;99.90
22923;DHT22;11627;51.322;22.816;2024-03-23T08:38:42;9.10;99.90
22923;DHT22;11627;51.322;22.816;2024-03-23T08:41:10;9.10;99.90
22923;DHT22;11627;51.322;22.816;2024-03-23T08:43:39;9.20;99.90
22923;DHT22;11627;51.322;22.816;2024-03-23T08:46:07;9.30;99.90
22923;DHT22;11627;51.322;22.816;2024-03-23T08:48:46;9.40;99.90
22923;DHT22;11627;51.322;22.816;2024-03-23T08:51:17;9.50;99.90
22923;DHT22;11627;51.322;22.816;2024-03-23T08:53:44;9.50;99.90
22923;DHT22;11627;51.322;22.816;2024-03-23T08:56:12;9.50;99.90
22923;DHT22;11627;51.322;22.816;2024-03-23T08:58:39;9.60;99.90
22923;DHT22;11627;51.322;22.816;2024-03-23T09:01:12;9.60;99.90
22923;DHT22;11627;51.322;22.816;2024-03-23T09:03:43;9.60;99.90
22923;DHT22;11627;51.322;22.816;2024-03-23T09:06:13;9.80;99.90
22923;DHT22;11627;51.322;22.816;2024-03-23T09:08:41;9.70;99.90
22923;DHT22;11627;51.322;22.816;2024-03-23T09:11:09;9.80;99.90
22923;DHT22;11627;51.322;22.816;2024-03-23T09:13:39;9.70;99.90
22923;DHT22;11627;51.322;22.816;2024-03-23T09:16:05;9.80;99.90
22923;DHT22;11627;51.322;22.816;2024-03-23T09:18:33;9.80;99.90
22923;DHT22;11627;51.322;22.816;2024-03-23T09:21:01;9.80;99.90
22923;DHT22;11627;51.322;22.816;2024-03-23T09:23:31;9.80;99.90
22923;DHT22;11627;51.322;22.816;2024-03-23T09:25:57;9.90;99.90
22923;DHT22;11627;51.322;22.816;2024-03-23T09:28:23;9.80;99.90
22923;DHT22;11627;51.322;22.816;2024-03-23T09:30:49;10.00;99.90
22923;DHT22;11627;51.322;22.816;2024-03-23T09:33:15;10.00;99.90
22923;DHT22;11627;51.322;22.816;2024-03-23T09:35:42;10.00;99.90
22923;DHT22;11627;51.322;22.816;2024-03-23T09:38:09;10.00;99.90
22923;DHT22;11627;51.322;22.816;2024-03-23T09:40:48;10.00;99.90
22923;DHT22;11627;51.322;22.816;2024-03-23T09:43:19;9.90;99.90
22923;DHT22;11627;51.322;22.816;2024-03-23T09:45:45;9.90;99.90
22923;DHT22;11627;51.322;22.816;2024-03-23T09:48:12;10.00;99.90
22923;DHT22;11627;51.322;22.816;2024-03-23T09:50:42;10.00;99.90
22923;DHT22;11627;51.322;22.816;2024-03-23T09:53:12;10.10;99.90
22923;DHT22;11627;51.322;22.816;2024-03-23T09:55:43;10.20;99.90
22923;DHT22;11627;51.322;22.816;2024-03-23T09:58:13;10.20;99.90
22923;DHT22;11627;51.322;22.816;2024-03-23T10:00:42;10.40;99.90
22923;DHT22;11627;51.322;22.816;2024-03-23T10:03:08;10.40;99.90
22923;DHT22;11627;51.322;22.816;2024-03-23T10:05:36;10.50;99.90
22923;DHT22;11627;51.322;22.816;2024-03-23T10:08:18;10.50;99.90
22923;DHT22;11627;51.322;22.816;2024-03-23T10:10:46;10.50;99.90
22923;DHT22;11627;51.322;22.816;2024-03-23T10:13:27;10.50;99.90
22923;DHT22;11627;51.322;22.816;2024-03-23T10:15:56;10.60;99.90
22923;DHT22;11627;51.322;22.816;2024-03-23T10:18:25;10.50;99.90
22923;DHT22;11627;51.322;22.816;2024-03-23T10:23:35;10.40;99.90
22923;DHT22;11627;51.322;22.816;2024-03-23T10:26:21;10.40;99.90
22923;DHT22;11627;51.322;22.816;2024-03-23T10:31:38;10.40;99.90
22923;DHT22;11627;51.322;22.816;2024-03-23T10:34:06;10.40;99.90
22923;DHT22;11627;51.322;22.816;2024-03-23T10:36:34;10.30;99.90
22923;DHT22;11627;51.322;22.816;2024-03-23T10:39:07;10.40;99.90
22923;DHT22;11627;51.322;22.816;2024-03-23T10:41:34;10.50;99.90
22923;DHT22;11627;51.322;22.816;2024-03-23T10:44:02;10.40;99.90
22923;DHT22;11627;51.322;22.816;2024-03-23T10:46:31;10.40;99.90
22923;DHT22;11627;51.322;22.816;2024-03-23T10:48:58;10.40;99.90
22923;DHT22;11627;51.322;22.816;2024-03-23T10:51:27;10.50;99.90
22923;DHT22;11627;51.322;22.816;2024-03-23T10:53:56;10.60;99.90
22923;DHT22;11627;51.322;22.816;2024-03-23T10:56:23;10.60;99.90
22923;DHT22;11627;51.322;22.816;2024-03-23T10:58:51;10.70;99.90
22923;DHT22;11627;51.322;22.816;2024-03-23T11:01:20;10.70;99.90
22923;DHT22;11627;51.322;22.816;2024-03-23T11:03:46;10.80;99.90
22923;DHT22;11627;51.322;22.816;2024-03-23T11:06:34;10.80;99.90
22923;DHT22;11627;51.322;22.816;2024-03-23T11:09:02;10.80;99.90
22923;DHT22;11627;51.322;22.816;2024-03-23T11:11:29;10.90;99.90
22923;DHT22;11627;51.322;22.816;2024-03-23T11:13:58;11.00;99.90
22923;DHT22;11627;51.322;22.816;2024-03-23T11:16:26;11.10;99.90
22923;DHT22;11627;51.322;22.816;2024-03-23T11:22:02;11.30;99.90
22923;DHT22;11627;51.322;22.816;2024-03-23T11:24:30;11.20;99.90
22923;DHT22;11627;51.322;22.816;2024-03-23T11:26:57;11.30;99.90
22923;DHT22;11627;51.322;22.816;2024-03-23T11:29:31;11.30;99.90
22923;DHT22;11627;51.322;22.816;2024-03-23T11:31:59;11.40;99.90
22923;DHT22;11627;51.322;22.816;2024-03-23T11:34:28;11.40;99.90
22923;DHT22;11627;51.322;22.816;2024-03-23T11:37:04;11.40;99.90
22923;DHT22;11627;51.322;22.816;2024-03-23T11:39:32;11.70;99.90
22923;DHT22;11627;51.322;22.816;2024-03-23T11:42:00;12.00;99.90
22923;DHT22;11627;51.322;22.816;2024-03-23T11:44:28;12.00;99.90
22923;DHT22;11627;51.322;22.816;2024-03-23T11:47:07;12.00;99.90
22923;DHT22;11627;51.322;22.816;2024-03-23T11:49:35;12.30;8.30
22923;DHT22;11627;51.322;22.816;2024-03-23T11:52:08;12.40;1.00
22923;DHT22;11627;51.322;22.816;2024-03-23T11:54:34;12.60;1.00
22923;DHT22;11627;51.322;22.816;2024-03-23T11:57:07;12.70;1.00
22923;DHT22;11627;51.322;22.816;2024-03-23T11:59:40;12.70;1.00
22923;DHT22;11627;51.322;22.816;2024-03-23T12:02:11;12.60;1.00
22923;DHT22;11627;51.322;22.816;2024-03-23T12:04:43;12.60;1.00
22923;DHT22;11627;51.322;22.816;2024-03-23T12:07:12;12.50;1.00
22923;DHT22;11627;51.322;22.816;2024-03-23T12:10:03;12.60;1.00
22923;DHT22;11627;51.322;22.816;2024-03-23T12:12:31;12.60;1.00
22923;DHT22;11627;51.322;22.816;2024-03-23T12:15:08;12.60;1.00
22923;DHT22;11627;51.322;22.816;2024-03-23T12:17:35;12.60;1.00
22923;DHT22;11627;51.322;22.816;2024-03-23T12:20:04;12.60;1.00
22923;DHT22;11627;51.322;22.816;2024-03-23T12:22:32;12.60;1.00
22923;DHT22;11627;51.322;22.816;2024-03-23T12:25:01;12.70;1.00
22923;DHT22;11627;51.322;22.816;2024-03-23T12:27:28;12.80;1.00
22923;DHT22;11627;51.322;22.816;2024-03-23T12:29:55;12.90;1.00
22923;DHT22;11627;51.322;22.816;2024-03-23T12:32:22;13.10;99.90
22923;DHT22;11627;51.322;22.816;2024-03-23T12:34:50;13.40;1.00
22923;DHT22;11627;51.322;22.816;2024-03-23T12:37:15;13.70;99.90
22923;DHT22;11627;51.322;22.816;2024-03-23T12:39:45;13.60;99.90
22923;DHT22;11627;51.322;22.816;2024-03-23T12:42:11;13.50;99.90
22923;DHT22;11627;51.322;22.816;2024-03-23T12:44:38;13.40;99.90
22923;DHT22;11627;51.322;22.816;2024-03-23T12:47:04;13.30;99.90
22923;DHT22;11627;51.322;22.816;2024-03-23T12:49:31;13.30;99.90
22923;DHT22;11627;51.322;22.816;2024-03-23T12:51:58;13.40;99.90
22923;DHT22;11627;51.322;22.816;2024-03-23T12:54:26;13.40;99.90
22923;DHT22;11627;51.322;22.816;2024-03-23T12:56:53;13.30;99.90
22923;DHT22;11627;51.322;22.816;2024-03-23T12:59:20;13.20;99.90
22923;DHT22;11627;51.322;22.816;2024-03-23T13:01:46;13.30;99.90
22923;DHT22;11627;51.322;22.816;2024-03-23T13:04:12;13.40;99.90
22923;DHT22;11627;51.322;22.816;2024-03-23T13:06:38;13.70;99.90
22923;DHT22;11627;51.322;22.816;2024-03-23T13:09:05;13.90;99.90
22923;DHT22;11627;51.322;22.816;2024-03-23T13:11:33;14.10;99.90
22923;DHT22;11627;51.322;22.816;2024-03-23T13:14:00;14.10;99.90
22923;DHT22;11627;51.322;22.816;2024-03-23T13:16:26;14.10;99.90
22923;DHT22;11627;51.322;22.816;2024-03-23T13:18:51;14.10;99.90
22923;DHT22;11627;51.322;22.816;2024-03-23T13:21:17;14.10;99.90
22923;DHT22;11627;51.322;22.816;2024-03-23T13:23:48;14.00;99.90
22923;DHT22;11627;51.322;22.816;2024-03-23T13:26:16;14.20;99.90
22923;DHT22;11627;51.322;22.816;2024-03-23T13:28:42;14.20;99.90
22923;DHT22;11627;51.322;22.816;2024-03-23T13:31:09;14.40;99.90
22923;DHT22;11627;51.322;22.816;2024-03-23T13:33:35;14.60;99.90
22923;DHT22;11627;51.322;22.816;2024-03-23T13:36:01;14.80;99.90
22923;DHT22;11627;51.322;22.816;2024-03-23T13:38:30;14.90;99.90
22923;DHT22;11627;51.322;22.816;2024-03-23T13:40:59;15.00;99.90
22923;DHT22;11627;51.322;22.816;2024-03-23T13:43:27;15.00;99.90
22923;DHT22;11627;51.322;22.816;2024-03-23T13:45:58;15.20;99.90
22923;DHT22;11627;51.322;22.816;2024-03-23T13:48:26;15.30;99.90
22923;DHT22;11627;51.322;22.816;2024-03-23T13:51:01;15.30;99.90
22923;DHT22;11627;51.322;22.816;2024-03-23T13:53:28;15.50;99.90
22923;DHT22;11627;51.322;22.816;2024-03-23T13:55:56;15.50;99.90
22923;DHT22;11627;51.322;22.816;2024-03-23T13:58:24;15.50;1.00
22923;DHT22;11627;51.322;22.816;2024-03-23T14:00:52;15.50;1.00
22923;DHT22;11627;51.322;22.816;2024-03-23T14:03:18;15.30;99.90
22923;DHT22;11627;51.322;22.816;2024-03-23T14:05:45;15.40;99.90
22923;DHT22;11627;51.322;22.816;2024-03-23T14:08:16;15.50;99.90
22923;DHT22;11627;51.322;22.816;2024-03-23T14:10:43;15.30;99.90
22923;DHT22;11627;51.322;22.816;2024-03-23T14:13:10;15.20;99.90
22923;DHT22;11627;51.322;22.816;2024-03-23T14:15:35;15.30;99.90
22923;DHT22;11627;51.322;22.816;2024-03-23T14:18:05;15.20;99.90
22923;DHT22;11627;51.322;22.816;2024-03-23T14:20:31;15.20;99.90
22923;DHT22;11627;51.322;22.816;2024-03-23T14:22:57;15.50;99.90
22923;DHT22;11627;51.322;22.816;2024-03-23T14:25:24;15.60;99.90
22923;DHT22;11627;51.322;22.816;2024-03-23T14:27:55;15.70;99.90
22923;DHT22;11627;51.322;22.816;2024-03-23T14:30:24;16.20;99.90
22923;DHT22;11627;51.322;22.816;2024-03-23T14:32:51;18.10;99.90
22923;DHT22;11627;51.322;22.816;2024-03-23T14:35:18;19.80;99.90
22923;DHT22;11627;51.322;22.816;2024-03-23T14:37:44;20.20;95.40
22923;DHT22;11627;51.322;22.816;2024-03-23T14:40:13;21.20;94.40
22923;DHT22;11627;51.322;22.816;2024-03-23T14:42:41;20.80;92.60
22923;DHT22;11627;51.322;22.816;2024-03-23T14:45:09;21.70;90.60
22923;DHT22;11627;51.322;22.816;2024-03-23T14:47:38;21.10;89.20
22923;DHT22;11627;51.322;22.816;2024-03-23T14:50:04;21.80;85.60
22923;DHT22;11627;51.322;22.816;2024-03-23T14:52:32;22.50;88.50
22923;DHT22;11627;51.322;22.816;2024-03-23T14:57:25;23.90;80.10
22923;DHT22;11627;51.322;22.816;2024-03-23T14:59:52;22.60;79.80
22923;DHT22;11627;51.322;22.816;2024-03-23T15:02:20;20.90;85.90
22923;DHT22;11627;51.322;22.816;2024-03-23T15:04:47;20.80;86.30
22923;DHT22;11627;51.322;22.816;2024-03-23T15:07:12;19.10;91.40
22923;DHT22;11627;51.322;22.816;2024-03-23T15:09:38;17.90;94.10
22923;DHT22;11627;51.322;22.816;2024-03-23T15:12:04;17.00;95.20
22923;DHT22;11627;51.322;22.816;2024-03-23T15:14:31;16.30;92.60
22923;DHT22;11627;51.322;22.816;2024-03-23T15:16:56;15.90;84.50
22923;DHT22;11627;51.322;22.816;2024-03-23T15:19:23;15.60;79.60
22923;DHT22;11627;51.322;22.816;2024-03-23T15:21:51;15.40;75.50
22923;DHT22;11627;51.322;22.816;2024-03-23T15:24:18;15.20;73.20
22923;DHT22;11627;51.322;22.816;2024-03-23T15:26:45;15.10;74.50
22923;DHT22;11627;51.322;22.816;2024-03-23T15:29:13;15.20;71.00
22923;DHT22;11627;51.322;22.816;2024-03-23T15:34:10;18.20;72.40
22923;DHT22;11627;51.322;22.816;2024-03-23T15:36:37;18.80;72.60
22923;DHT22;11627;51.322;22.816;2024-03-23T15:39:08;18.70;73.30
22923;DHT22;11627;51.322;22.816;2024-03-23T15:41:35;17.70;75.10
22923;DHT22;11627;51.322;22.816;2024-03-23T15:46:31;16.30;78.80
22923;DHT22;11627;51.322;22.816;2024-03-23T15:53:59;14.80;74.10
22923;DHT22;11627;51.322;22.816;2024-03-23T15:58:52;14.10;55.90
22923;DHT22;11627;51.322;22.816;2024-03-23T16:03:47;13.60;99.90
22923;DHT22;11627;51.322;22.816;2024-03-23T16:06:15;13.50;1.00
22923;DHT22;11627;51.322;22.816;2024-03-23T16:08:42;13.30;99.90
22923;DHT22;11627;51.322;22.816;2024-03-23T16:11:10;13.30;1.00
22923;DHT22;11627;51.322;22.816;2024-03-23T16:13:37;13.20;1.00
22923;DHT22;11627;51.322;22.816;2024-03-23T16:16:07;13.10;99.90
22923;DHT22;11627;51.322;22.816;2024-03-23T16:18:35;13.10;1.00
22923;DHT22;11627;51.322;22.816;2024-03-23T16:21:06;13.00;1.00
22923;DHT22;11627;51.322;22.816;2024-03-23T16:23:36;12.90;1.00
22923;DHT22;11627;51.322;22.816;2024-03-23T16:26:10;13.00;20.00
22923;DHT22;11627;51.322;22.816;2024-03-23T16:28:39;12.90;99.90
22923;DHT22;11627;51.322;22.816;2024-03-23T16:31:07;12.90;99.90
22923;DHT22;11627;51.322;22.816;2024-03-23T16:36:09;12.70;1.00
22923;DHT22;11627;51.322;22.816;2024-03-23T16:38:39;12.70;99.90
22923;DHT22;11627;51.322;22.816;2024-03-23T16:41:06;12.60;99.90
22923;DHT22;11627;51.322;22.816;2024-03-23T16:43:48;12.60;99.90
22923;DHT22;11627;51.322;22.816;2024-03-23T16:46:15;12.50;99.90
22923;DHT22;11627;51.322;22.816;2024-03-23T16:48:43;12.40;1.00
22923;DHT22;11627;51.322;22.816;2024-03-23T16:51:11;12.40;1.00
22923;DHT22;11627;51.322;22.816;2024-03-23T16:53:40;12.50;99.90